createdAt,value
2019-03-29T00:01:38.306Z,97879.09
2019-03-29T00:04:06.379Z,97879.41
2019-03-29T00:06:34.502Z,97880.02
2019-03-29T00:09:03.067Z,97876.94
2019-03-29T00:11:31.175Z,97879.80
2019-03-29T00:13:59.600Z,97879.58
2019-03-29T00:16:27.955Z,97884.03
2019-03-29T00:18:57.808Z,97879.35
2019-03-29T00:21:26.607Z,97877.04
2019-03-29T00:24:06.135Z,97871.34
2019-03-29T00:26:25.589Z,97872.65
2019-03-29T00:28:54.193Z,97871.81
2019-03-29T00:31:22.686Z,97865.14
2019-03-29T00:33:51.041Z,97855.91
2019-03-29T00:36:18.939Z,97857.11
2019-03-29T00:38:47.000Z,97857.11
2019-03-29T00:41:15.393Z,97859.13
2019-03-29T00:43:44.603Z,97849.34
2019-03-29T00:46:12.306Z,97852.95
2019-03-29T00:48:40.928Z,97850.02
2019-03-29T00:51:10.199Z,97848.28
2019-03-29T00:53:37.983Z,97853.19
2019-03-29T00:56:06.491Z,97853.48
2019-03-29T00:58:34.966Z,97848.95
2019-03-29T01:01:03.575Z,97840.03
2019-03-29T01:03:32.349Z,97838.78
2019-03-29T01:06:00.262Z,97840.41
2019-03-29T01:08:28.800Z,97840.79
2019-03-29T01:10:58.390Z,97837.50
2019-03-29T01:13:26.286Z,97838.50
2019-03-29T01:15:54.301Z,97843.23
2019-03-29T01:18:22.279Z,97841.92
2019-03-29T01:20:50.363Z,97844.45
2019-03-29T01:23:19.051Z,97834.89
2019-03-29T01:25:46.974Z,97825.78
2019-03-29T01:28:17.416Z,97823.50
2019-03-29T01:30:45.475Z,97822.71
2019-03-29T01:33:13.651Z,97825.84
2019-03-29T01:35:41.388Z,97812.95
2019-03-29T01:38:21.154Z,97815.08
2019-03-29T01:40:40.439Z,97807.79
2019-03-29T01:43:08.238Z,97815.30
2019-03-29T01:45:36.627Z,97812.14
2019-03-29T01:48:04.942Z,97820.90
2019-03-29T01:50:33.044Z,97814.89
2019-03-29T01:53:01.136Z,97816.80
2019-03-29T01:55:29.159Z,97810.50
2019-03-29T01:57:57.255Z,97808.59
2019-03-29T02:00:32.268Z,97812.05
2019-03-29T02:03:01.468Z,97809.94
2019-03-29T02:05:29.972Z,97813.53
2019-03-29T02:07:58.675Z,97807.80
2019-03-29T02:10:28.606Z,97811.77
2019-03-29T02:12:57.609Z,97806.69
2019-03-29T02:15:25.491Z,97814.46
2019-03-29T02:17:54.107Z,97807.28
2019-03-29T02:20:23.851Z,97811.44
2019-03-29T02:22:51.803Z,97803.51
2019-03-29T02:25:20.483Z,97807.65
2019-03-29T02:27:48.556Z,97805.41
2019-03-29T02:30:17.266Z,97805.97
2019-03-29T02:32:45.007Z,97801.34
2019-03-29T02:35:13.278Z,97802.92
2019-03-29T02:37:42.448Z,97800.75
2019-03-29T02:40:10.400Z,97799.30
2019-03-29T02:42:39.456Z,97802.80
2019-03-29T02:45:08.329Z,97799.25
2019-03-29T02:47:36.203Z,97802.66
2019-03-29T02:50:05.188Z,97798.03
2019-03-29T02:52:33.788Z,97800.38
2019-03-29T02:55:02.667Z,97794.20
2019-03-29T02:57:30.717Z,97794.59
2019-03-29T02:59:58.906Z,97799.99
2019-03-29T03:02:27.277Z,97796.18
2019-03-29T03:04:55.084Z,97793.20
2019-03-29T03:07:24.420Z,97800.05
2019-03-29T03:09:52.636Z,97798.29
2019-03-29T03:12:20.563Z,97806.13
2019-03-29T03:14:49.481Z,97805.50
2019-03-29T03:17:18.280Z,97802.56
2019-03-29T03:19:46.304Z,97805.36
2019-03-29T03:22:14.193Z,97808.85
2019-03-29T03:24:44.827Z,97808.39
2019-03-29T03:27:13.206Z,97810.10
2019-03-29T03:29:48.149Z,97813.31
2019-03-29T03:32:15.743Z,97813.39
2019-03-29T03:34:44.643Z,97811.52
2019-03-29T03:37:13.774Z,97812.28
2019-03-29T03:39:43.249Z,97811.44
2019-03-29T03:42:11.022Z,97812.34
2019-03-29T03:44:39.649Z,97807.96
2019-03-29T03:47:07.719Z,97803.37
2019-03-29T03:49:35.626Z,97801.60
2019-03-29T03:52:04.189Z,97799.45
2019-03-29T03:54:32.123Z,97798.83
2019-03-29T03:57:00.127Z,97791.48
2019-03-29T03:59:29.386Z,97797.23
2019-03-29T04:01:57.563Z,97797.62
2019-03-29T04:04:26.476Z,97796.61
2019-03-29T04:06:56.259Z,97801.28
2019-03-29T04:09:24.131Z,97796.73
2019-03-29T04:11:52.890Z,97800.05
2019-03-29T04:14:22.797Z,97800.75
2019-03-29T04:16:51.178Z,97795.80
2019-03-29T04:19:20.754Z,97796.77
2019-03-29T04:21:49.190Z,97794.52
2019-03-29T04:24:17.100Z,97800.20
2019-03-29T04:26:46.023Z,97798.56
2019-03-29T04:29:14.121Z,97792.44
2019-03-29T04:31:43.054Z,97794.19
2019-03-29T04:34:10.925Z,97793.23
2019-03-29T04:36:39.493Z,97789.06
2019-03-29T04:39:09.142Z,97785.66
2019-03-29T04:41:37.334Z,97782.14
2019-03-29T04:44:05.390Z,97782.80
2019-03-29T04:46:33.400Z,97783.31
2019-03-29T04:49:01.495Z,97784.19
2019-03-29T04:51:29.807Z,97783.02
2019-03-29T04:53:57.775Z,97779.22
2019-03-29T04:56:26.416Z,97779.02
2019-03-29T04:58:55.328Z,97775.77
2019-03-29T05:01:23.435Z,97770.69
2019-03-29T05:03:51.970Z,97771.99
2019-03-29T05:06:19.996Z,97766.96
2019-03-29T05:08:48.197Z,97770.09
2019-03-29T05:11:16.039Z,97769.31
2019-03-29T05:13:44.145Z,97769.09
2019-03-29T05:16:14.286Z,97771.86
2019-03-29T05:18:42.414Z,97770.27
2019-03-29T05:21:10.692Z,97773.87
2019-03-29T05:23:38.911Z,97774.25
2019-03-29T05:26:07.175Z,97772.98
2019-03-29T05:28:36.001Z,97779.56
2019-03-29T05:31:05.102Z,97775.89
2019-03-29T05:33:33.011Z,97784.18
2019-03-29T05:36:01.082Z,97780.30
2019-03-29T05:38:29.386Z,97789.88
2019-03-29T05:40:57.492Z,97789.70
2019-03-29T05:43:25.943Z,97792.71
2019-03-29T05:45:54.029Z,97795.38
2019-03-29T05:48:22.165Z,97795.25
2019-03-29T05:50:50.530Z,97798.52
2019-03-29T05:53:18.490Z,97793.16
2019-03-29T05:55:48.293Z,97795.21
2019-03-29T05:58:16.336Z,97793.16
2019-03-29T06:00:46.959Z,97788.63
2019-03-29T06:03:15.361Z,97783.41
2019-03-29T06:05:43.958Z,97779.34
2019-03-29T06:08:11.762Z,97786.10
2019-03-29T06:10:48.874Z,97789.59
2019-03-29T06:13:10.743Z,97791.04
2019-03-29T06:15:38.666Z,97785.29
2019-03-29T06:18:07.203Z,97789.44
2019-03-29T06:20:35.906Z,97796.97
2019-03-29T06:23:05.803Z,97796.83
2019-03-29T06:25:35.554Z,97790.84
2019-03-29T06:28:03.879Z,97795.83
2019-03-29T06:30:32.413Z,97795.12
2019-03-29T06:33:01.320Z,97797.50
2019-03-29T06:35:36.415Z,97793.48
2019-03-29T06:38:05.865Z,97797.10
2019-03-29T06:40:34.134Z,97795.12
2019-03-29T06:43:02.182Z,97795.80
2019-03-29T06:45:30.155Z,97794.40
2019-03-29T06:48:01.163Z,97797.84
2019-03-29T06:50:29.980Z,97800.05
2019-03-29T06:52:58.004Z,97800.89
2019-03-29T06:55:26.755Z,97792.80
2019-03-29T06:57:54.814Z,97791.59
2019-03-29T07:00:24.502Z,97792.37
2019-03-29T07:02:53.498Z,97789.14
2019-03-29T07:05:21.833Z,97789.39
2019-03-29T07:07:49.872Z,97784.05
2019-03-29T07:10:18.786Z,97779.08
2019-03-29T07:12:47.760Z,97781.62
2019-03-29T07:15:17.556Z,97775.34
2019-03-29T07:17:45.668Z,97780.79
2019-03-29T07:20:14.160Z,97778.75
2019-03-29T07:22:42.579Z,97783.55
2019-03-29T07:25:10.795Z,97778.59
2019-03-29T07:27:46.663Z,97774.56
2019-03-29T07:30:11.352Z,97776.78
2019-03-29T07:32:41.543Z,97772.62
2019-03-29T07:35:09.733Z,97765.69
2019-03-29T07:37:38.280Z,97770.41
2019-03-29T07:40:06.816Z,97762.80
2019-03-29T07:42:35.399Z,97765.98
2019-03-29T07:45:03.959Z,97764.70
2019-03-29T07:47:32.400Z,97752.23
2019-03-29T07:50:00.411Z,97758.91
2019-03-29T07:52:28.190Z,97756.77
2019-03-29T07:54:56.588Z,97758.69
2019-03-29T07:57:24.595Z,97759.08
2019-03-29T07:59:52.691Z,97756.47
2019-03-29T08:02:21.120Z,97752.27
2019-03-29T08:04:51.958Z,97752.19
2019-03-29T08:07:27.156Z,97750.83
2019-03-29T08:09:50.200Z,97754.41
2019-03-29T08:12:17.987Z,97749.50
2019-03-29T08:14:46.650Z,97753.86
2019-03-29T08:17:15.594Z,97755.18
2019-03-29T08:19:43.976Z,97746.71
2019-03-29T08:22:12.064Z,97748.80
2019-03-29T08:24:39.815Z,97750.26
2019-03-29T08:27:08.042Z,97748.41
2019-03-29T08:29:36.452Z,97741.64
2019-03-29T08:32:04.671Z,97755.53
2019-03-29T08:34:35.767Z,97755.44
2019-03-29T08:37:03.258Z,97755.80
2019-03-29T08:39:31.865Z,97754.91
2019-03-29T08:42:00.878Z,97745.78
2019-03-29T08:44:28.729Z,97750.24
2019-03-29T08:46:57.313Z,97755.11
2019-03-29T08:49:25.793Z,97748.88
2019-03-29T08:51:54.396Z,97739.02
2019-03-29T08:54:24.767Z,97738.05
2019-03-29T08:56:53.808Z,97744.64
2019-03-29T08:59:22.043Z,97740.20
2019-03-29T09:01:50.144Z,97744.64
2019-03-29T09:04:21.499Z,97748.24
2019-03-29T09:06:53.652Z,97747.14
2019-03-29T09:09:18.782Z,97752.59
2019-03-29T09:11:47.047Z,97752.59
2019-03-29T09:14:16.847Z,97745.13
2019-03-29T09:16:45.165Z,97729.37
2019-03-29T09:19:15.062Z,97742.66
2019-03-29T09:21:45.147Z,97737.44
2019-03-29T09:24:21.970Z,97739.61
2019-03-29T09:26:42.762Z,97721.02
2019-03-29T09:29:10.851Z,97727.39
2019-03-29T09:31:39.440Z,97729.55
2019-03-29T09:34:08.347Z,97724.14
2019-03-29T09:36:36.562Z,97723.79
2019-03-29T09:39:06.048Z,97731.24
2019-03-29T09:41:35.714Z,97732.68
2019-03-29T09:44:04.777Z,97724.02
2019-03-29T09:46:32.749Z,97725.34
2019-03-29T09:49:01.080Z,97722.59
2019-03-29T09:51:28.995Z,97714.63
2019-03-29T09:53:58.000Z,97710.73
2019-03-29T09:56:38.539Z,97714.52
2019-03-29T09:58:59.207Z,97700.53
2019-03-29T10:01:28.664Z,97708.91
2019-03-29T10:03:57.079Z,97709.23
2019-03-29T10:06:25.102Z,97711.06
2019-03-29T10:08:53.584Z,97703.41
2019-03-29T10:11:22.348Z,97704.23
2019-03-29T10:13:50.845Z,97691.61
2019-03-29T10:16:21.526Z,97675.98
2019-03-29T10:18:49.383Z,97693.13
2019-03-29T10:21:17.758Z,97680.92
2019-03-29T10:23:45.592Z,97680.89
2019-03-29T10:26:15.068Z,97668.05
2019-03-29T10:28:44.318Z,97682.00
2019-03-29T10:31:12.746Z,97681.67
2019-03-29T10:33:41.495Z,97681.03
2019-03-29T10:36:09.799Z,97679.38
2019-03-29T10:38:38.847Z,97687.44
2019-03-29T10:41:06.887Z,97680.14
2019-03-29T10:43:35.250Z,97672.95
2019-03-29T10:46:03.255Z,97676.33
2019-03-29T10:48:31.255Z,97666.98
2019-03-29T10:50:59.234Z,97664.17
2019-03-29T10:53:29.064Z,97679.24
2019-03-29T10:55:57.364Z,97667.73
2019-03-29T10:58:25.606Z,97675.11
2019-03-29T11:00:53.751Z,97670.60
2019-03-29T11:03:21.986Z,97674.81
2019-03-29T11:05:49.915Z,97669.39
2019-03-29T11:08:18.213Z,97674.78
2019-03-29T11:10:46.480Z,97662.41
2019-03-29T11:13:15.557Z,97664.87
2019-03-29T11:15:44.304Z,97670.25
2019-03-29T11:18:12.222Z,97673.03
2019-03-29T11:20:40.581Z,97675.02
2019-03-29T11:23:08.963Z,97665.61
2019-03-29T11:25:36.978Z,97654.59
2019-03-29T11:28:04.802Z,97659.75
2019-03-29T11:30:42.016Z,97657.83
2019-03-29T11:33:04.666Z,97646.01
2019-03-29T11:35:33.080Z,97659.64
2019-03-29T11:38:01.756Z,97659.48
2019-03-29T11:40:29.890Z,97659.13
2019-03-29T11:42:58.092Z,97648.78
2019-03-29T11:45:26.575Z,97651.74
2019-03-29T11:48:07.279Z,97651.02
2019-03-29T11:50:25.104Z,97646.05
2019-03-29T11:52:53.843Z,97648.64
2019-03-29T11:55:21.943Z,97640.03
2019-03-29T11:57:51.657Z,97632.58
2019-03-29T12:00:35.386Z,97640.85
2019-03-29T12:03:03.378Z,97643.64
2019-03-29T12:05:31.910Z,97640.80
2019-03-29T12:08:01.923Z,97634.91
2019-03-29T12:10:31.099Z,97633.42
2019-03-29T12:12:59.747Z,97632.59
2019-03-29T12:15:29.385Z,97628.59
2019-03-29T12:17:58.446Z,97625.24
2019-03-29T12:20:27.325Z,97628.42
2019-03-29T12:22:55.202Z,97621.42
2019-03-29T12:25:23.706Z,97625.73
2019-03-29T12:27:52.068Z,97625.84
2019-03-29T12:30:31.508Z,97628.12
2019-03-29T12:32:50.927Z,97623.77
2019-03-29T12:35:18.881Z,97615.18
2019-03-29T12:37:47.371Z,97615.06
2019-03-29T12:40:15.695Z,97603.70
2019-03-29T12:42:43.482Z,97608.29
2019-03-29T12:45:12.763Z,97610.48
2019-03-29T12:47:40.509Z,97613.73
2019-03-29T12:50:09.615Z,97586.59
2019-03-29T12:52:38.305Z,97596.78
2019-03-29T12:55:06.475Z,97594.44
2019-03-29T12:57:34.513Z,97589.62
2019-03-29T13:00:02.277Z,97596.70
2019-03-29T13:02:34.394Z,97588.98
2019-03-29T13:05:00.445Z,97590.72
2019-03-29T13:07:28.816Z,97587.20
2019-03-29T13:09:58.317Z,97584.44
2019-03-29T13:12:26.481Z,97585.97
2019-03-29T13:14:54.552Z,97584.95
2019-03-29T13:17:22.762Z,97583.77
2019-03-29T13:19:51.289Z,97582.58
2019-03-29T13:22:19.835Z,97576.48
2019-03-29T13:24:49.198Z,97570.69
2019-03-29T13:27:17.170Z,97570.77
2019-03-29T13:29:46.289Z,97566.73
2019-03-29T13:32:14.359Z,97562.56
2019-03-29T13:34:42.993Z,97560.38
2019-03-29T13:37:11.899Z,97555.46
2019-03-29T13:39:40.052Z,97545.91
2019-03-29T13:42:08.518Z,97544.38
2019-03-29T13:44:36.949Z,97536.92
2019-03-29T13:47:05.149Z,97541.64
2019-03-29T13:49:33.280Z,97540.12
2019-03-29T13:52:01.651Z,97544.72
2019-03-29T13:54:29.425Z,97541.02
2019-03-29T13:56:57.714Z,97531.94
2019-03-29T13:59:26.653Z,97536.98
2019-03-29T14:01:55.416Z,97528.11
2019-03-29T14:04:24.598Z,97532.44
2019-03-29T14:06:52.329Z,97530.42
2019-03-29T14:09:21.408Z,97526.39
2019-03-29T14:11:50.347Z,97519.95
2019-03-29T14:14:18.191Z,97529.67
2019-03-29T14:16:46.315Z,97518.13
2019-03-29T14:19:14.188Z,97513.16
2019-03-29T14:21:42.991Z,97514.33
2019-03-29T14:24:11.356Z,97508.34
2019-03-29T14:26:39.838Z,97506.03
2019-03-29T14:29:09.986Z,97501.77
2019-03-29T14:31:37.883Z,97498.56
2019-03-29T14:34:07.061Z,97492.20
2019-03-29T14:36:35.539Z,97490.58
2019-03-29T14:39:05.768Z,97487.16
2019-03-29T14:41:34.022Z,97486.51
2019-03-29T14:44:02.046Z,97484.58
2019-03-29T14:46:30.919Z,97485.34
2019-03-29T14:48:59.099Z,97484.16
2019-03-29T14:51:28.119Z,97479.98
2019-03-29T14:53:57.527Z,97481.52
2019-03-29T14:56:26.332Z,97481.35
2019-03-29T14:58:54.391Z,97465.87
2019-03-29T15:01:22.178Z,97468.58
2019-03-29T15:03:50.089Z,97467.98
2019-03-29T15:06:18.580Z,97463.45
2019-03-29T15:08:49.903Z,97464.18
2019-03-29T15:11:22.561Z,97455.42
2019-03-29T15:13:48.582Z,97454.00
2019-03-29T15:16:16.854Z,97449.13
2019-03-29T15:18:46.005Z,97460.98
2019-03-29T15:21:14.035Z,97450.09
2019-03-29T15:23:42.746Z,97451.69
2019-03-29T15:26:11.032Z,97449.89
2019-03-29T15:28:39.667Z,97444.27
2019-03-29T15:31:08.573Z,97447.80
2019-03-29T15:33:37.386Z,97441.15
2019-03-29T15:36:06.381Z,97442.94
2019-03-29T15:38:34.865Z,97445.31
2019-03-29T15:41:03.528Z,97445.75
2019-03-29T15:43:31.711Z,97442.29
2019-03-29T15:46:00.163Z,97432.95
2019-03-29T15:48:28.367Z,97433.52
2019-03-29T15:50:56.821Z,97440.30
2019-03-29T15:53:25.136Z,97440.37
2019-03-29T15:55:52.997Z,97435.51
2019-03-29T15:58:22.266Z,97442.85
2019-03-29T16:00:51.056Z,97431.39
2019-03-29T16:03:19.184Z,97436.43
2019-03-29T16:05:48.622Z,97441.98
2019-03-29T16:08:16.891Z,97439.55
2019-03-29T16:10:45.074Z,97435.73
2019-03-29T16:13:15.618Z,97434.80
2019-03-29T16:19:26.438Z,97432.10
2019-03-29T16:21:54.223Z,97428.56
2019-03-29T16:24:22.886Z,97429.11
2019-03-29T16:26:51.047Z,97422.27
2019-03-29T16:29:19.952Z,97432.13
2019-03-29T16:31:48.106Z,97429.10
2019-03-29T16:34:16.348Z,97424.72
2019-03-29T16:36:44.223Z,97426.94
2019-03-29T16:39:12.471Z,97417.87
2019-03-29T16:41:40.250Z,97416.92
2019-03-29T16:44:08.385Z,97410.17
2019-03-29T16:46:36.540Z,97421.07
2019-03-29T16:49:07.965Z,97416.61
2019-03-29T16:51:36.254Z,97413.40
2019-03-29T16:54:05.832Z,97418.09
2019-03-29T16:56:34.311Z,97415.83
2019-03-29T16:59:02.544Z,97418.02
2019-03-29T17:01:30.513Z,97412.83
2019-03-29T17:03:59.648Z,97414.25
2019-03-29T17:06:27.835Z,97411.92
2019-03-29T17:08:55.962Z,97419.17
2019-03-29T17:11:26.375Z,97413.02
2019-03-29T17:13:56.185Z,97417.80
2019-03-29T17:16:30.177Z,97415.27
2019-03-29T17:18:55.160Z,97419.77
2019-03-29T17:21:25.692Z,97414.66
2019-03-29T17:23:53.792Z,97417.56
2019-03-29T17:26:22.232Z,97414.78
2019-03-29T17:28:52.326Z,97423.69
2019-03-29T17:31:20.944Z,97419.91
2019-03-29T17:33:48.755Z,97415.01
2019-03-29T17:36:19.942Z,97421.77
2019-03-29T17:38:48.525Z,97419.96
2019-03-29T17:41:16.619Z,97420.24
2019-03-29T17:43:45.071Z,97420.72
2019-03-29T17:46:16.673Z,97425.22
2019-03-29T17:48:45.593Z,97435.29
2019-03-29T17:51:17.896Z,97438.41
2019-03-29T17:53:46.021Z,97439.58
2019-03-29T17:56:13.891Z,97435.38
2019-03-29T17:58:42.734Z,97437.98
2019-03-29T18:01:10.796Z,97436.67
2019-03-29T18:03:38.575Z,97444.39
2019-03-29T18:06:07.784Z,97438.55
2019-03-29T18:08:36.507Z,97437.20
2019-03-29T18:11:05.462Z,97446.52
2019-03-29T18:13:35.502Z,97445.55
2019-03-29T18:16:04.177Z,97450.44
2019-03-29T18:18:32.334Z,97443.14
2019-03-29T18:21:00.374Z,97450.84
2019-03-29T18:23:28.663Z,97443.33
2019-03-29T18:25:56.739Z,97445.73
2019-03-29T18:28:25.108Z,97455.80
2019-03-29T18:30:52.947Z,97449.95
2019-03-29T18:33:21.341Z,97456.27
2019-03-29T18:35:49.120Z,97452.77
2019-03-29T18:38:18.620Z,97459.52
2019-03-29T18:40:47.100Z,97452.46
2019-03-29T18:43:15.067Z,97457.72
2019-03-29T18:45:43.174Z,97453.30
2019-03-29T18:48:11.929Z,97449.76
2019-03-29T18:50:41.545Z,97452.03
2019-03-29T18:53:09.822Z,97452.58
2019-03-29T18:55:38.287Z,97445.81
2019-03-29T18:58:07.105Z,97441.45
2019-03-29T19:00:35.696Z,97437.11
2019-03-29T19:03:03.626Z,97446.17
2019-03-29T19:05:31.919Z,97446.95
2019-03-29T19:08:00.028Z,97444.53
2019-03-29T19:10:30.531Z,97450.47
2019-03-29T19:12:58.501Z,97452.98
2019-03-29T19:15:26.606Z,97452.05
2019-03-29T19:17:55.740Z,97457.64
2019-03-29T19:20:27.978Z,97452.23
2019-03-29T19:22:54.564Z,97449.49
2019-03-29T19:25:23.509Z,97448.34
2019-03-29T19:27:51.694Z,97455.83
2019-03-29T19:30:20.394Z,97438.24
2019-03-29T19:32:48.198Z,97436.41
2019-03-29T19:35:16.976Z,97449.78
2019-03-29T19:37:46.203Z,97446.16
2019-03-29T19:40:14.489Z,97450.95
2019-03-29T19:42:42.424Z,97450.23
2019-03-29T19:45:11.002Z,97449.88
2019-03-29T19:47:39.153Z,97451.05
2019-03-29T19:50:07.453Z,97449.39
2019-03-29T19:52:36.546Z,97448.88
2019-03-29T19:55:07.029Z,97448.31
2019-03-29T19:57:35.889Z,97447.74
2019-03-29T20:00:06.523Z,97448.14
2019-03-29T20:02:34.263Z,97450.16
2019-03-29T20:05:02.184Z,97448.66
2019-03-29T20:07:33.896Z,97452.80
2019-03-29T20:10:05.979Z,97450.02
2019-03-29T20:12:36.021Z,97446.93
2019-03-29T20:15:06.688Z,97460.77
2019-03-29T20:20:22.338Z,97445.71
2019-03-29T20:22:51.740Z,97447.21
2019-03-29T20:25:20.630Z,97443.05
2019-03-29T20:27:49.415Z,97442.70
2019-03-29T20:30:18.230Z,97446.41
2019-03-29T20:32:47.170Z,97445.06
2019-03-29T20:35:15.636Z,97449.23
2019-03-29T20:37:44.618Z,97448.05
2019-03-29T20:40:13.860Z,97442.12
2019-03-29T20:42:42.988Z,97438.48
2019-03-29T20:45:11.484Z,97440.11
2019-03-29T20:47:42.214Z,97441.14
2019-03-29T20:50:10.755Z,97439.53
2019-03-29T20:52:40.566Z,97441.45
2019-03-29T20:55:11.994Z,97440.89
2019-03-29T20:57:40.024Z,97436.45
2019-03-29T21:00:09.316Z,97435.77
2019-03-29T21:02:37.443Z,97431.95
2019-03-29T21:05:05.905Z,97431.70
2019-03-29T21:07:34.408Z,97431.64
2019-03-29T21:10:03.168Z,97432.42
2019-03-29T21:12:31.906Z,97430.06
2019-03-29T21:15:00.257Z,97432.08
2019-03-29T21:17:28.409Z,97431.54
2019-03-29T21:19:56.555Z,97431.10
2019-03-29T21:22:25.180Z,97431.77
2019-03-29T21:24:53.314Z,97430.70
2019-03-29T21:27:21.608Z,97425.57
2019-03-29T21:29:50.170Z,97427.33
2019-03-29T21:32:18.736Z,97418.00
2019-03-29T21:34:48.376Z,97421.27
2019-03-29T21:37:16.823Z,97417.80
2019-03-29T21:39:44.946Z,97414.83
2019-03-29T21:42:13.572Z,97419.44
2019-03-29T21:44:45.252Z,97414.89
2019-03-29T21:47:14.001Z,97412.81
2019-03-29T21:49:42.540Z,97411.80
2019-03-29T21:52:11.929Z,97406.36
2019-03-29T21:54:40.562Z,97413.16
2019-03-29T21:57:09.142Z,97411.53
2019-03-29T21:59:37.768Z,97409.57
2019-03-29T22:02:07.917Z,97405.98
2019-03-29T22:04:48.367Z,97407.69
2019-03-29T22:07:16.411Z,97400.22
2019-03-29T22:09:52.645Z,97407.66
2019-03-29T22:12:20.708Z,97402.09
2019-03-29T22:14:48.913Z,97399.86
2019-03-29T22:17:17.540Z,97396.88
2019-03-29T22:19:45.600Z,97393.21
2019-03-29T22:22:15.062Z,97389.66
2019-03-29T22:24:44.082Z,97394.92
2019-03-29T22:27:14.009Z,97395.00
2019-03-29T22:29:42.204Z,97383.70
2019-03-29T22:32:11.015Z,97380.26
2019-03-29T22:34:40.727Z,97378.91
2019-03-29T22:37:10.396Z,97377.94
2019-03-29T22:39:38.562Z,97374.52
2019-03-29T22:42:07.676Z,97375.36
2019-03-29T22:44:37.285Z,97380.59
2019-03-29T22:47:05.566Z,97379.20
2019-03-29T22:49:33.993Z,97373.67
2019-03-29T22:52:02.816Z,97368.19
2019-03-29T22:54:31.287Z,97367.52
2019-03-29T22:56:59.433Z,97361.24
2019-03-29T22:59:27.847Z,97364.71
2019-03-29T23:01:56.357Z,97362.65
2019-03-29T23:04:25.007Z,97360.48
2019-03-29T23:06:53.815Z,97353.55
2019-03-29T23:09:22.394Z,97354.58
2019-03-29T23:11:52.331Z,97351.59
2019-03-29T23:14:22.271Z,97354.14
2019-03-29T23:16:50.410Z,97347.05
2019-03-29T23:19:18.571Z,97346.16
2019-03-29T23:21:46.754Z,97340.92
2019-03-29T23:24:15.302Z,97338.02
2019-03-29T23:26:43.863Z,97338.59
2019-03-29T23:29:11.959Z,97341.37
2019-03-29T23:31:40.451Z,97337.75
2019-03-29T23:34:08.628Z,97339.98
2019-03-29T23:36:39.169Z,97340.37
2019-03-29T23:39:07.320Z,97339.66
2019-03-29T23:41:37.026Z,97336.23
2019-03-29T23:44:06.022Z,97343.97
2019-03-29T23:46:34.985Z,97340.45
2019-03-29T23:49:04.453Z,97343.63
2019-03-29T23:51:32.566Z,97339.84
2019-03-29T23:54:00.959Z,97336.25
2019-03-29T23:56:29.055Z,97339.04
2019-03-29T23:58:57.461Z,97341.80
